createdAt,value
2022-12-05T00:00:11.620Z,21.53
2022-12-05T00:01:15.400Z,21.54
2022-12-05T00:03:18.722Z,21.54
2022-12-05T00:04:20.319Z,21.53
2022-12-05T00:07:25.657Z,21.53
2022-12-05T00:08:27.204Z,21.54
2022-12-05T00:09:29.080Z,21.55
2022-12-05T00:10:30.596Z,21.56
2022-12-05T00:11:34.918Z,21.53
2022-12-05T00:12:36.533Z,21.56
2022-12-05T00:13:40.422Z,21.54
2022-12-05T00:14:41.945Z,21.54
2022-12-05T00:15:43.480Z,21.54
2022-12-05T00:17:46.770Z,21.53
2022-12-05T00:18:49.000Z,21.53
2022-12-05T00:19:55.187Z,21.54
2022-12-05T00:20:58.369Z,21.53
2022-12-05T00:21:59.985Z,21.52
2022-12-05T00:23:01.614Z,21.52
2022-12-05T00:24:05.615Z,21.52
2022-12-05T00:25:07.772Z,21.53
2022-12-05T00:26:10.506Z,21.53
2022-12-05T00:27:12.035Z,21.52
2022-12-05T00:28:13.576Z,21.52
2022-12-05T00:29:15.226Z,21.53
2022-12-05T00:30:16.873Z,21.52
2022-12-05T00:31:22.434Z,21.50
2022-12-05T00:32:24.063Z,21.55
2022-12-05T00:33:25.626Z,21.56
2022-12-05T00:34:27.261Z,21.56
2022-12-05T00:35:28.851Z,21.56
2022-12-05T00:36:33.654Z,21.55
2022-12-05T00:37:35.185Z,21.53
2022-12-05T00:38:37.605Z,21.51
2022-12-05T00:39:39.377Z,21.53
2022-12-05T00:40:41.001Z,21.53
2022-12-05T00:41:43.431Z,21.53
2022-12-05T00:43:54.440Z,21.53
2022-12-05T00:44:55.991Z,21.52
2022-12-05T00:46:02.398Z,21.49
2022-12-05T00:47:03.994Z,21.53
2022-12-05T00:48:05.780Z,21.54
2022-12-05T00:49:08.349Z,21.53
2022-12-05T00:50:10.070Z,21.53
2022-12-05T00:51:30.179Z,21.52
2022-12-05T00:52:31.738Z,21.54
2022-12-05T00:53:33.941Z,21.52
2022-12-05T00:54:35.511Z,21.51
2022-12-05T00:55:38.387Z,21.51
2022-12-05T00:56:40.363Z,21.50
2022-12-05T00:57:41.919Z,21.51
2022-12-05T00:58:44.291Z,21.51
2022-12-05T00:59:45.812Z,21.52
2022-12-05T01:00:47.369Z,21.50
2022-12-05T01:01:50.706Z,21.50
2022-12-05T01:02:52.341Z,21.51
2022-12-05T01:03:56.587Z,21.49
2022-12-05T01:04:58.124Z,21.51
2022-12-05T01:06:00.041Z,21.50
2022-12-05T01:07:01.803Z,21.52
2022-12-05T01:08:03.443Z,21.52
2022-12-05T01:09:05.744Z,21.52
2022-12-05T01:10:07.968Z,21.48
2022-12-05T01:11:11.509Z,21.50
2022-12-05T01:12:13.159Z,21.48
2022-12-05T01:13:14.920Z,21.49
2022-12-05T01:14:19.333Z,21.49
2022-12-05T01:15:20.853Z,21.50
2022-12-05T01:16:36.082Z,21.47
2022-12-05T01:17:38.001Z,21.52
2022-12-05T01:18:39.530Z,21.51
2022-12-05T01:19:41.056Z,21.49
2022-12-05T01:20:43.078Z,21.51
2022-12-05T01:21:44.977Z,21.52
2022-12-05T01:22:46.544Z,21.50
2022-12-05T01:23:48.520Z,21.50
2022-12-05T01:24:50.053Z,21.49
2022-12-05T01:25:52.743Z,21.49
2022-12-05T01:26:54.692Z,21.50
2022-12-05T01:27:56.274Z,21.50
2022-12-05T01:28:57.897Z,21.49
2022-12-05T01:29:59.877Z,21.50
2022-12-05T01:31:09.550Z,21.46
2022-12-05T01:32:11.164Z,21.49
2022-12-05T01:33:13.085Z,21.49
2022-12-05T01:34:16.636Z,21.48
2022-12-05T01:35:18.204Z,21.49
2022-12-05T01:36:20.347Z,21.47
2022-12-05T01:37:21.906Z,21.47
2022-12-05T01:38:23.454Z,21.47
2022-12-05T01:39:24.965Z,21.48
2022-12-05T01:40:26.543Z,21.46
2022-12-05T01:41:31.899Z,21.46
2022-12-05T01:42:33.532Z,21.49
2022-12-05T01:43:58.908Z,21.44
2022-12-05T01:45:16.532Z,21.48
2022-12-05T01:46:18.232Z,21.52
2022-12-05T01:47:21.376Z,21.50
2022-12-05T01:48:28.180Z,21.48
2022-12-05T01:49:39.637Z,21.45
2022-12-05T01:50:41.436Z,21.51
2022-12-05T01:51:49.090Z,21.49
2022-12-05T01:52:50.760Z,21.51
2022-12-05T01:53:52.609Z,21.52
2022-12-05T01:54:59.699Z,21.49
2022-12-05T01:56:01.682Z,21.49
2022-12-05T01:57:08.055Z,21.47
2022-12-05T01:58:10.748Z,21.50
2022-12-05T01:59:13.299Z,21.50
2022-12-05T02:00:19.097Z,21.46
2022-12-05T02:01:21.205Z,21.49
2022-12-05T02:02:23.136Z,21.50
2022-12-05T02:03:24.719Z,21.51
2022-12-05T02:04:27.774Z,21.49
2022-12-05T02:05:32.476Z,21.49
2022-12-05T02:06:34.132Z,21.50
2022-12-05T02:07:39.499Z,21.48
2022-12-05T02:08:42.498Z,21.51
2022-12-05T02:09:44.164Z,21.51
2022-12-05T02:10:49.955Z,21.49
2022-12-05T02:11:59.531Z,21.46
2022-12-05T02:13:14.033Z,21.49
2022-12-05T02:14:33.703Z,21.46
2022-12-05T02:16:12.020Z,21.46
2022-12-05T02:17:22.487Z,21.51
2022-12-05T02:18:29.954Z,21.50
2022-12-05T02:19:49.316Z,21.51
2022-12-05T02:21:26.117Z,21.47
2022-12-05T02:22:43.020Z,21.50
2022-12-05T02:24:08.712Z,21.51
2022-12-05T02:25:22.564Z,21.48
2022-12-05T02:26:49.209Z,21.48
2022-12-05T02:28:21.423Z,21.46
2022-12-05T02:29:48.050Z,21.44
2022-12-05T02:31:21.723Z,21.45
2022-12-05T02:32:50.612Z,21.45
2022-12-05T02:34:03.979Z,21.49
2022-12-05T02:35:30.921Z,21.46
2022-12-05T02:36:53.950Z,21.48
2022-12-05T02:38:30.867Z,21.48
2022-12-05T02:39:51.285Z,21.46
2022-12-05T02:41:23.251Z,21.48
2022-12-05T02:42:31.546Z,21.54
2022-12-05T02:43:40.957Z,21.48
2022-12-05T02:44:56.583Z,21.46
2022-12-05T02:46:04.284Z,21.50
2022-12-05T02:47:07.989Z,21.52
2022-12-05T02:48:14.278Z,21.51
2022-12-05T02:49:23.739Z,21.48
2022-12-05T02:50:31.188Z,21.49
2022-12-05T02:51:38.158Z,21.49
2022-12-05T02:52:41.090Z,21.52
2022-12-05T02:53:44.317Z,21.52
2022-12-05T02:54:49.519Z,21.51
2022-12-05T02:55:51.753Z,21.53
2022-12-05T02:56:55.035Z,21.52
2022-12-05T02:58:00.823Z,21.52
2022-12-05T03:01:06.990Z,21.55
2022-12-05T03:02:20.272Z,21.55
2022-12-05T03:03:23.368Z,21.55
2022-12-05T03:04:26.649Z,21.57
2022-12-05T03:06:09.886Z,21.49
2022-12-05T03:07:13.694Z,21.55
2022-12-05T03:08:20.746Z,21.54
2022-12-05T03:09:28.668Z,21.55
2022-12-05T03:10:31.892Z,21.57
2022-12-05T03:11:40.597Z,21.54
2022-12-05T03:12:48.855Z,21.55
2022-12-05T03:13:58.284Z,21.55
2022-12-05T03:15:05.897Z,21.55
2022-12-05T03:16:52.161Z,21.52
2022-12-05T03:17:53.709Z,21.58
2022-12-05T03:19:00.302Z,21.58
2022-12-05T03:20:06.926Z,21.52
2022-12-05T03:21:30.119Z,21.47
2022-12-05T03:22:44.940Z,21.49
2022-12-05T03:23:53.453Z,21.48
2022-12-05T03:24:55.152Z,21.51
2022-12-05T03:25:56.649Z,21.50
2022-12-05T03:27:07.698Z,21.45
2022-12-05T03:28:21.959Z,21.46
2022-12-05T03:29:51.001Z,21.45
2022-12-05T03:30:56.521Z,21.51
2022-12-05T03:32:06.972Z,21.47
2022-12-05T03:33:17.041Z,21.49
2022-12-05T03:34:29.947Z,21.50
2022-12-05T03:35:43.248Z,21.47
2022-12-05T03:36:49.549Z,21.48
2022-12-05T03:37:59.973Z,21.50
2022-12-05T03:39:14.756Z,21.47
2022-12-05T03:40:34.392Z,21.46
2022-12-05T03:41:46.203Z,21.50
2022-12-05T03:42:56.635Z,21.49
2022-12-05T03:44:06.299Z,21.50
2022-12-05T03:45:15.345Z,21.50
2022-12-05T03:46:35.392Z,21.50
2022-12-05T03:47:53.002Z,21.52
2022-12-05T03:49:17.467Z,21.47
2022-12-05T03:50:29.700Z,21.48
2022-12-05T03:51:39.390Z,21.50
2022-12-05T03:53:18.796Z,21.49
2022-12-05T03:54:23.889Z,21.49
2022-12-05T03:55:29.702Z,21.51
2022-12-05T03:56:43.500Z,21.47
2022-12-05T03:57:52.665Z,21.47
2022-12-05T03:59:20.125Z,21.46
2022-12-05T04:00:24.386Z,21.51
2022-12-05T04:01:29.525Z,21.52
2022-12-05T04:02:45.300Z,21.50
2022-12-05T04:03:52.713Z,21.53
2022-12-05T04:05:01.141Z,21.53
2022-12-05T04:06:05.805Z,21.53
2022-12-05T04:07:09.047Z,21.54
2022-12-05T04:08:19.996Z,21.48
2022-12-05T04:09:30.059Z,21.49
2022-12-05T04:10:48.631Z,21.51
2022-12-05T04:11:59.795Z,21.48
2022-12-05T04:13:17.797Z,21.51
2022-12-05T04:14:28.389Z,21.51
2022-12-05T04:15:52.145Z,21.53
2022-12-05T04:17:09.497Z,21.48
2022-12-05T04:18:11.959Z,21.53
2022-12-05T04:20:20.401Z,21.45
2022-12-05T04:21:40.359Z,21.51
2022-12-05T04:22:44.436Z,21.53
2022-12-05T04:24:05.949Z,21.51
2022-12-05T04:25:30.658Z,21.50
2022-12-05T04:26:33.608Z,21.49
2022-12-05T04:27:46.944Z,21.49
2022-12-05T04:29:05.973Z,21.43
2022-12-05T04:30:14.818Z,21.45
2022-12-05T04:31:25.709Z,21.44
2022-12-05T04:32:35.688Z,21.46
2022-12-05T04:33:43.100Z,21.49
2022-12-05T04:34:49.419Z,21.47
2022-12-05T04:36:09.822Z,21.47
2022-12-05T04:37:14.823Z,21.48
2022-12-05T04:38:28.165Z,21.48
2022-12-05T04:39:41.387Z,21.48
2022-12-05T04:40:59.689Z,21.44
2022-12-05T04:42:04.220Z,21.50
2022-12-05T04:43:06.909Z,21.49
2022-12-05T04:44:13.300Z,21.46
2022-12-05T04:45:18.854Z,21.48
2022-12-05T04:46:22.990Z,21.50
2022-12-05T04:47:31.215Z,21.48
2022-12-05T04:48:37.539Z,21.49
2022-12-05T04:49:42.891Z,21.50
2022-12-05T04:50:48.568Z,21.51
2022-12-05T04:51:56.513Z,21.50
2022-12-05T04:53:00.669Z,21.49
2022-12-05T04:54:20.623Z,21.47
2022-12-05T04:55:28.271Z,21.52
2022-12-05T04:56:34.214Z,21.50
2022-12-05T04:57:45.740Z,21.48
2022-12-05T04:58:47.682Z,21.52
2022-12-05T04:59:49.301Z,21.51
2022-12-05T05:00:58.693Z,21.47
2022-12-05T05:02:08.368Z,21.47
2022-12-05T05:03:30.116Z,21.46
2022-12-05T05:04:38.665Z,21.49
2022-12-05T05:05:41.241Z,21.52
2022-12-05T05:06:43.650Z,21.52
2022-12-05T05:07:51.430Z,21.49
2022-12-05T05:08:55.854Z,21.51
2022-12-05T05:09:57.807Z,21.51
2022-12-05T05:11:27.155Z,21.45
2022-12-05T05:12:28.919Z,21.51
2022-12-05T05:13:30.580Z,21.51
2022-12-05T05:14:32.479Z,21.51
2022-12-05T05:15:34.031Z,21.52
2022-12-05T05:16:40.815Z,21.51
2022-12-05T05:17:42.391Z,21.51
2022-12-05T05:18:48.362Z,21.49
2022-12-05T05:19:49.860Z,21.53
2022-12-05T05:20:51.382Z,21.52
2022-12-05T05:21:53.429Z,21.51
2022-12-05T05:22:56.610Z,21.52
2022-12-05T05:23:58.669Z,21.51
2022-12-05T05:25:00.322Z,21.50
2022-12-05T05:26:01.834Z,21.52
2022-12-05T05:27:03.449Z,21.51
2022-12-05T05:28:05.264Z,21.51
2022-12-05T05:29:07.678Z,21.51
2022-12-05T05:30:09.713Z,21.53
2022-12-05T05:31:11.694Z,21.53
2022-12-05T05:32:13.271Z,21.55
2022-12-05T05:33:15.210Z,21.55
2022-12-05T05:34:16.739Z,21.54
2022-12-05T05:35:18.316Z,21.55
2022-12-05T05:36:21.550Z,21.57
2022-12-05T05:37:23.130Z,21.56
2022-12-05T05:38:24.671Z,21.56
2022-12-05T05:39:28.348Z,21.56
2022-12-05T05:40:29.952Z,21.58
2022-12-05T05:41:35.229Z,21.57
2022-12-05T05:42:37.236Z,21.59
2022-12-05T05:43:40.243Z,21.60
2022-12-05T05:44:41.797Z,21.59
2022-12-05T05:45:43.335Z,21.60
2022-12-05T05:46:44.997Z,21.60
2022-12-05T05:47:49.065Z,21.61
2022-12-05T05:48:51.357Z,21.62
2022-12-05T05:49:52.969Z,21.62
2022-12-05T05:50:54.481Z,21.62
2022-12-05T05:51:55.996Z,21.61
2022-12-05T05:52:57.652Z,21.64
2022-12-05T05:53:59.999Z,21.65
2022-12-05T05:55:02.256Z,21.64
2022-12-05T05:56:05.755Z,21.66
2022-12-05T05:57:07.511Z,21.66
2022-12-05T05:58:09.572Z,21.66
2022-12-05T05:59:11.084Z,21.66
2022-12-05T06:00:13.344Z,21.66
2022-12-05T06:01:20.233Z,21.66
2022-12-05T06:02:22.008Z,21.67
2022-12-05T06:03:23.765Z,21.66
2022-12-05T06:04:25.803Z,21.68
2022-12-05T06:05:27.572Z,21.66
2022-12-05T06:06:29.119Z,21.69
2022-12-05T06:07:31.021Z,21.69
2022-12-05T06:08:35.496Z,21.68
2022-12-05T06:09:37.181Z,21.70
2022-12-05T06:10:39.285Z,21.69
2022-12-05T06:11:40.811Z,21.70
2022-12-05T06:12:42.355Z,21.70
2022-12-05T06:13:44.206Z,21.71
2022-12-05T06:14:48.597Z,21.69
2022-12-05T06:15:50.468Z,21.71
2022-12-05T06:16:52.126Z,21.71
2022-12-05T06:17:53.692Z,21.72
2022-12-05T06:18:55.377Z,21.71
2022-12-05T06:19:57.502Z,21.71
2022-12-05T06:20:59.236Z,21.73
2022-12-05T06:22:00.887Z,21.74
2022-12-05T06:23:02.409Z,21.72
2022-12-05T06:24:04.213Z,21.74
2022-12-05T06:25:06.405Z,21.73
2022-12-05T06:26:11.665Z,21.73
2022-12-05T06:27:13.443Z,21.76
2022-12-05T06:28:15.405Z,21.80
2022-12-05T06:29:19.603Z,21.86
2022-12-05T06:30:23.224Z,21.98
2022-12-05T06:31:28.473Z,22.05
2022-12-05T06:32:30.285Z,22.10
2022-12-05T06:33:31.803Z,22.14
2022-12-05T06:34:33.377Z,22.20
2022-12-05T06:35:35.030Z,22.26
2022-12-05T06:36:36.787Z,22.30
2022-12-05T06:37:38.593Z,22.34
2022-12-05T06:38:42.243Z,22.34
2022-12-05T06:39:44.201Z,22.37
2022-12-05T06:40:45.773Z,22.43
2022-12-05T06:41:47.280Z,22.45
2022-12-05T06:42:48.799Z,22.48
2022-12-05T06:44:00.189Z,22.50
2022-12-05T06:45:05.100Z,22.56
2022-12-05T06:46:08.746Z,22.55
2022-12-05T06:47:10.361Z,22.59
2022-12-05T06:48:11.935Z,22.63
2022-12-05T06:49:13.527Z,22.66
2022-12-05T06:50:16.607Z,22.68
2022-12-05T06:51:18.300Z,22.66
2022-12-05T06:52:20.035Z,22.67
2022-12-05T06:53:21.906Z,22.68
2022-12-05T06:54:23.450Z,22.69
2022-12-05T06:55:24.961Z,22.74
2022-12-05T06:56:26.516Z,22.73
2022-12-05T06:57:28.832Z,22.73
2022-12-05T06:58:30.807Z,22.73
2022-12-05T06:59:32.420Z,22.75
2022-12-05T07:00:52.886Z,22.78
2022-12-05T07:01:54.529Z,22.79
2022-12-05T07:02:56.183Z,22.80
2022-12-05T07:03:58.387Z,22.80
2022-12-05T07:04:59.963Z,22.81
2022-12-05T07:06:04.413Z,22.83
2022-12-05T07:07:06.043Z,22.82
2022-12-05T07:08:07.682Z,22.83
2022-12-05T07:09:10.040Z,22.85
2022-12-05T07:10:11.816Z,22.87
2022-12-05T07:11:13.432Z,22.86
2022-12-05T07:12:18.301Z,22.88
2022-12-05T07:13:19.913Z,22.88
2022-12-05T07:15:42.992Z,22.93
2022-12-05T07:16:44.643Z,22.94
2022-12-05T07:17:46.382Z,22.94
2022-12-05T07:18:48.019Z,22.93
2022-12-05T07:19:50.792Z,22.95
2022-12-05T07:21:11.804Z,22.96
2022-12-05T07:22:16.076Z,22.96
2022-12-05T07:23:17.868Z,22.98
2022-12-05T07:24:19.523Z,23.00
2022-12-05T07:25:22.575Z,22.99
2022-12-05T07:26:25.018Z,23.00
2022-12-05T07:27:28.039Z,22.99
2022-12-05T07:28:29.953Z,23.00
2022-12-05T07:29:31.618Z,23.00
2022-12-05T07:30:33.402Z,23.01
2022-12-05T07:31:36.605Z,23.01
2022-12-05T07:32:38.234Z,23.00
2022-12-05T07:33:39.991Z,23.00
2022-12-05T07:34:42.345Z,23.02
2022-12-05T07:35:44.075Z,23.01
2022-12-05T07:36:45.633Z,22.98
2022-12-05T07:37:47.166Z,22.98
2022-12-05T07:38:48.872Z,22.96
2022-12-05T07:39:52.905Z,22.94
2022-12-05T07:40:54.682Z,22.92
2022-12-05T07:41:56.196Z,22.89
2022-12-05T07:42:57.704Z,22.86
2022-12-05T07:44:00.489Z,22.85
2022-12-05T07:45:02.112Z,22.81
2022-12-05T07:46:06.505Z,22.80
2022-12-05T07:47:08.184Z,22.80
2022-12-05T07:48:12.240Z,22.80
2022-12-05T07:49:16.069Z,22.80
2022-12-05T07:50:17.636Z,22.80
2022-12-05T07:51:20.200Z,22.79
2022-12-05T07:52:21.789Z,22.78
2022-12-05T07:53:23.323Z,22.78
2022-12-05T07:54:24.867Z,22.76
2022-12-05T07:55:26.490Z,22.76
2022-12-05T07:56:28.481Z,22.77
2022-12-05T07:57:30.985Z,22.76
2022-12-05T07:58:33.685Z,22.76
2022-12-05T07:59:35.262Z,22.75
2022-12-05T08:00:36.784Z,22.73
2022-12-05T08:01:38.379Z,22.74
2022-12-05T08:02:40.926Z,22.76
2022-12-05T08:03:43.814Z,22.76
2022-12-05T08:04:45.767Z,22.75
2022-12-05T08:05:47.453Z,22.76
2022-12-05T08:06:49.041Z,22.75
2022-12-05T08:07:50.668Z,22.77
2022-12-05T08:08:53.352Z,22.77
2022-12-05T08:09:54.905Z,22.76
2022-12-05T08:10:56.526Z,22.75
2022-12-05T08:11:58.381Z,22.74
2022-12-05T08:12:59.945Z,22.75
2022-12-05T08:14:03.832Z,22.76
2022-12-05T08:15:06.568Z,22.76
2022-12-05T08:16:12.242Z,22.74
2022-12-05T08:17:13.900Z,22.76
2022-12-05T08:18:15.457Z,22.76
2022-12-05T08:19:17.237Z,22.76
2022-12-05T08:20:18.893Z,22.76
2022-12-05T08:21:20.549Z,22.78
2022-12-05T08:22:22.146Z,22.77
2022-12-05T08:23:23.712Z,22.79
2022-12-05T08:24:25.257Z,22.78
2022-12-05T08:25:26.820Z,22.77
2022-12-05T08:26:31.061Z,22.77
2022-12-05T08:27:32.633Z,22.77
2022-12-05T08:28:34.675Z,22.76
2022-12-05T08:29:36.282Z,22.77
2022-12-05T08:30:37.840Z,22.78
2022-12-05T08:31:42.809Z,22.76
2022-12-05T08:32:44.396Z,22.76
2022-12-05T08:33:45.968Z,22.75
2022-12-05T08:34:47.557Z,22.75
2022-12-05T08:35:49.132Z,22.75
2022-12-05T08:36:50.770Z,22.78
2022-12-05T08:37:53.083Z,22.79
2022-12-05T08:39:00.167Z,22.77
2022-12-05T08:40:01.739Z,22.78
2022-12-05T08:41:05.362Z,22.77
2022-12-05T08:42:06.984Z,22.78
2022-12-05T08:43:08.524Z,22.80
2022-12-05T08:44:16.081Z,22.79
2022-12-05T08:45:17.923Z,22.78
2022-12-05T08:46:19.516Z,22.77
2022-12-05T08:47:21.153Z,22.76
2022-12-05T08:48:28.824Z,22.78
2022-12-05T08:49:31.011Z,22.78
2022-12-05T08:50:32.602Z,22.78
2022-12-05T08:51:34.578Z,22.78
2022-12-05T08:52:36.149Z,22.75
2022-12-05T08:53:43.830Z,22.76
2022-12-05T08:54:46.224Z,22.77
2022-12-05T08:55:47.849Z,22.79
2022-12-05T08:56:52.299Z,22.76
2022-12-05T08:57:53.807Z,22.79
2022-12-05T08:59:01.432Z,22.81
2022-12-05T09:00:07.354Z,22.80
2022-12-05T09:01:18.676Z,22.79
2022-12-05T09:02:20.369Z,22.81
2022-12-05T09:03:22.011Z,22.81
2022-12-05T09:04:23.610Z,22.80
2022-12-05T09:05:28.769Z,22.84
2022-12-05T09:06:31.604Z,22.83
2022-12-05T09:07:33.189Z,22.84
2022-12-05T09:08:34.925Z,22.85
2022-12-05T09:09:36.485Z,22.85
2022-12-05T09:10:38.441Z,22.87
2022-12-05T09:11:48.753Z,22.87
2022-12-05T09:12:51.333Z,22.92
2022-12-05T09:13:54.380Z,22.94
2022-12-05T09:14:56.131Z,22.93
2022-12-05T09:15:58.342Z,22.96
2022-12-05T09:17:01.078Z,22.97
2022-12-05T09:18:02.606Z,22.97
2022-12-05T09:19:04.826Z,22.96
2022-12-05T09:20:07.456Z,22.97
2022-12-05T09:21:14.916Z,22.94
2022-12-05T09:22:16.462Z,22.99
2022-12-05T09:23:18.140Z,23.00
2022-12-05T09:24:19.927Z,23.00
2022-12-05T09:25:21.969Z,23.00
2022-12-05T09:26:25.888Z,23.00
2022-12-05T09:27:30.554Z,22.99
2022-12-05T09:28:33.695Z,22.99
2022-12-05T09:29:35.364Z,22.99
2022-12-05T09:30:37.055Z,22.99
2022-12-05T09:31:39.267Z,22.99
2022-12-05T09:32:40.842Z,22.99
2022-12-05T09:33:42.852Z,22.99
2022-12-05T09:34:44.451Z,22.99
2022-12-05T09:35:46.013Z,23.00
2022-12-05T09:36:55.720Z,22.99
2022-12-05T09:38:03.095Z,22.99
2022-12-05T09:39:06.609Z,23.00
2022-12-05T09:40:16.219Z,22.97
2022-12-05T09:41:55.104Z,22.97
2022-12-05T09:43:09.082Z,23.00
2022-12-05T09:44:27.242Z,22.95
2022-12-05T09:45:46.025Z,22.96
2022-12-05T09:47:00.304Z,22.95
2022-12-05T09:48:11.403Z,22.96
2022-12-05T09:49:13.697Z,22.99
2022-12-05T09:50:28.027Z,22.94
2022-12-05T09:51:30.813Z,22.96
2022-12-05T09:52:37.738Z,22.95
2022-12-05T09:53:42.449Z,22.96
2022-12-05T09:54:44.032Z,22.96
2022-12-05T09:55:53.311Z,22.93
2022-12-05T09:56:55.222Z,22.95
2022-12-05T09:57:59.745Z,22.95
2022-12-05T09:59:01.461Z,22.94
2022-12-05T10:00:05.966Z,22.94
2022-12-05T10:01:39.145Z,22.89
2022-12-05T10:03:04.436Z,22.87
2022-12-05T10:04:29.428Z,22.89
2022-12-05T10:05:54.057Z,22.87
2022-12-05T10:07:29.056Z,22.89
2022-12-05T10:08:44.773Z,22.89
2022-12-05T10:10:34.158Z,22.87
2022-12-05T10:11:53.943Z,22.91
2022-12-05T10:12:58.243Z,22.91
2022-12-05T10:14:13.132Z,22.90
2022-12-05T10:15:29.560Z,22.86
2022-12-05T10:16:34.949Z,22.91
2022-12-05T10:17:39.450Z,22.91
2022-12-05T10:18:46.689Z,22.89
2022-12-05T10:19:52.950Z,22.90
2022-12-05T10:21:03.939Z,22.91
2022-12-05T10:22:20.840Z,22.89
2022-12-05T10:24:04.721Z,22.89
2022-12-05T10:25:07.575Z,22.92
2022-12-05T10:26:13.323Z,22.91
2022-12-05T10:27:51.783Z,22.87
2022-12-05T10:28:53.358Z,22.93
2022-12-05T10:30:02.732Z,22.92
2022-12-05T10:31:08.536Z,22.91
2022-12-05T10:32:13.076Z,22.88
2022-12-05T10:33:24.023Z,22.87
2022-12-05T10:34:33.939Z,22.87
2022-12-05T10:35:38.273Z,22.90
2022-12-05T10:36:41.867Z,22.91
2022-12-05T10:37:48.970Z,22.88
2022-12-05T10:38:50.905Z,22.90
2022-12-05T10:39:52.728Z,22.90
2022-12-05T10:40:58.311Z,22.90
2022-12-05T10:41:59.896Z,22.92
2022-12-05T10:43:01.724Z,22.93
2022-12-05T10:44:03.773Z,22.92
2022-12-05T10:45:08.790Z,22.92
2022-12-05T10:46:16.791Z,22.94
2022-12-05T10:47:18.778Z,22.95
2022-12-05T10:48:22.051Z,22.92
2022-12-05T10:49:24.206Z,22.93
2022-12-05T10:50:36.694Z,22.89
2022-12-05T10:51:39.388Z,22.92
2022-12-05T10:52:40.956Z,22.92
2022-12-05T10:53:51.132Z,22.92
2022-12-05T10:55:01.547Z,22.92
2022-12-05T10:56:29.707Z,22.93
2022-12-05T10:57:30.160Z,22.94
2022-12-05T10:58:31.801Z,22.93
2022-12-05T10:59:46.961Z,22.88
2022-12-05T11:00:51.757Z,22.92
2022-12-05T11:01:56.825Z,22.93
2022-12-05T11:03:00.520Z,22.92
2022-12-05T11:04:18.317Z,22.91
2022-12-05T11:05:31.492Z,22.89
2022-12-05T11:06:33.134Z,22.91
2022-12-05T11:07:43.632Z,22.91
2022-12-05T11:09:04.267Z,22.87
2022-12-05T11:10:37.729Z,22.89
2022-12-05T11:11:39.377Z,22.95
2022-12-05T11:12:41.046Z,22.94
2022-12-05T11:13:53.892Z,22.89
2022-12-05T11:15:07.728Z,22.92
2022-12-05T11:16:24.446Z,22.87
2022-12-05T11:17:46.458Z,22.88
2022-12-05T11:18:49.395Z,22.94
2022-12-05T11:19:51.030Z,22.93
2022-12-05T11:20:52.687Z,22.91
2022-12-05T11:21:55.386Z,22.93
2022-12-05T11:22:59.340Z,22.92
2022-12-05T11:24:22.668Z,22.88
2022-12-05T11:25:34.452Z,22.91
2022-12-05T11:26:37.753Z,22.93
2022-12-05T11:27:39.315Z,22.92
2022-12-05T11:28:42.399Z,22.93
2022-12-05T11:29:53.669Z,22.93
2022-12-05T11:31:03.081Z,22.90
2022-12-05T11:32:16.772Z,22.91
2022-12-05T11:33:21.868Z,22.90
2022-12-05T11:34:28.106Z,22.92
2022-12-05T11:35:29.678Z,22.95
2022-12-05T11:36:44.062Z,22.90
2022-12-05T11:37:50.922Z,22.95
2022-12-05T11:38:53.088Z,22.93
2022-12-05T11:39:55.162Z,22.95
2022-12-05T11:41:18.481Z,22.91
2022-12-05T11:42:50.996Z,22.88
2022-12-05T11:44:13.686Z,22.90
2022-12-05T11:46:03.032Z,22.86
2022-12-05T11:47:13.379Z,22.91
2022-12-05T11:48:56.981Z,22.85
2022-12-05T11:50:34.000Z,22.87
2022-12-05T11:51:54.717Z,22.89
2022-12-05T11:53:24.120Z,22.88
2022-12-05T11:56:16.779Z,22.88
2022-12-05T11:57:53.679Z,22.83
2022-12-05T11:59:29.431Z,22.84
2022-12-05T12:00:31.044Z,22.89
2022-12-05T12:01:51.893Z,22.82
2022-12-05T12:03:33.327Z,22.84
2022-12-05T12:04:44.828Z,22.85
2022-12-05T12:06:19.872Z,22.84
2022-12-05T12:07:30.589Z,22.88
2022-12-05T12:08:37.869Z,22.88
2022-12-05T12:10:03.651Z,22.87
2022-12-05T12:11:32.863Z,22.87
2022-12-05T12:13:21.048Z,22.91
2022-12-05T12:14:37.740Z,22.95
2022-12-05T12:16:08.228Z,22.92
2022-12-05T12:17:27.883Z,22.92
2022-12-05T12:19:04.055Z,22.90
2022-12-05T12:20:20.493Z,22.93
2022-12-05T12:21:43.481Z,22.90
2022-12-05T12:23:17.964Z,22.92
2022-12-05T12:24:37.961Z,22.91
2022-12-05T12:26:11.531Z,22.90
2022-12-05T12:27:58.700Z,22.90
2022-12-05T12:29:45.880Z,22.88
2022-12-05T12:31:06.404Z,22.92
2022-12-05T12:32:26.129Z,22.92
2022-12-05T12:33:33.470Z,22.90
2022-12-05T12:34:58.125Z,22.89
2022-12-05T12:36:08.905Z,22.93
2022-12-05T12:37:38.064Z,22.89
2022-12-05T12:39:17.115Z,22.89
2022-12-05T12:40:29.811Z,22.92
2022-12-05T12:42:08.829Z,22.92
2022-12-05T12:43:53.343Z,22.92
2022-12-05T12:45:06.444Z,22.98
2022-12-05T12:46:30.046Z,22.92
2022-12-05T12:47:40.075Z,22.94
2022-12-05T12:49:05.064Z,22.94
2022-12-05T12:50:09.579Z,22.98
2022-12-05T12:51:13.991Z,22.96
2022-12-05T12:52:20.719Z,22.98
2022-12-05T12:53:28.867Z,23.01
2022-12-05T12:55:06.768Z,22.96
2022-12-05T12:56:42.204Z,22.96
2022-12-05T12:57:52.584Z,23.00
2022-12-05T12:59:16.129Z,23.01
2022-12-05T13:00:54.827Z,22.95
2022-12-05T13:02:11.624Z,22.97
2022-12-05T13:03:51.218Z,22.96
2022-12-05T13:05:04.785Z,22.98
2022-12-05T13:06:16.612Z,22.97
2022-12-05T13:07:31.406Z,22.97
2022-12-05T13:08:41.871Z,22.99
2022-12-05T13:09:56.994Z,22.97
2022-12-05T13:11:01.701Z,23.01
2022-12-05T13:12:10.705Z,22.98
2022-12-05T13:13:20.947Z,22.97
2022-12-05T13:14:25.864Z,22.98
2022-12-05T13:15:36.139Z,22.97
2022-12-05T13:16:46.347Z,22.97
2022-12-05T13:17:49.408Z,23.00
2022-12-05T13:18:50.985Z,22.99
2022-12-05T13:19:54.068Z,22.98
2022-12-05T13:20:59.181Z,22.98
2022-12-05T13:22:01.047Z,22.98
2022-12-05T13:23:07.863Z,22.98
2022-12-05T13:24:13.550Z,22.99
2022-12-05T13:25:16.538Z,22.97
2022-12-05T13:26:19.108Z,22.97
2022-12-05T13:27:24.871Z,22.97
2022-12-05T13:28:32.381Z,22.98
2022-12-05T13:29:40.360Z,22.99
2022-12-05T13:30:57.890Z,22.97
2022-12-05T13:32:02.423Z,23.00
2022-12-05T13:33:10.156Z,22.98
2022-12-05T13:34:27.284Z,22.96
2022-12-05T13:35:53.537Z,22.99
2022-12-05T13:37:18.644Z,22.99
2022-12-05T13:38:51.672Z,22.96
2022-12-05T13:40:15.154Z,23.02
2022-12-05T13:41:35.528Z,23.01
2022-12-05T13:42:37.959Z,23.00
2022-12-05T13:44:05.364Z,22.93
2022-12-05T13:45:11.751Z,22.98
2022-12-05T13:46:26.129Z,22.94
2022-12-05T13:47:52.086Z,22.93
2022-12-05T13:49:05.130Z,22.93
2022-12-05T13:50:30.563Z,22.91
2022-12-05T13:51:39.198Z,22.95
2022-12-05T13:53:04.335Z,22.91
2022-12-05T13:54:19.622Z,22.97
2022-12-05T13:55:32.250Z,22.97
2022-12-05T13:56:55.332Z,22.94
2022-12-05T13:57:59.029Z,22.99
2022-12-05T13:59:00.652Z,22.98
2022-12-05T14:00:08.169Z,22.93
2022-12-05T14:01:24.915Z,22.89
2022-12-05T14:02:48.557Z,22.89
2022-12-05T14:03:50.154Z,22.94
2022-12-05T14:04:53.337Z,22.94
2022-12-05T14:05:55.130Z,22.94
2022-12-05T14:06:58.674Z,22.93
2022-12-05T14:08:03.778Z,22.94
2022-12-05T14:09:18.069Z,22.90
2022-12-05T14:10:28.502Z,22.91
2022-12-05T14:11:30.262Z,22.94
2022-12-05T14:12:47.797Z,22.90
2022-12-05T14:13:49.674Z,22.96
2022-12-05T14:14:57.521Z,22.93
2022-12-05T14:16:18.009Z,22.90
2022-12-05T14:17:19.733Z,22.93
2022-12-05T14:18:43.040Z,22.91
2022-12-05T14:19:58.629Z,22.90
2022-12-05T14:21:18.624Z,22.96
2022-12-05T14:22:32.402Z,22.90
2022-12-05T14:23:55.827Z,22.88
2022-12-05T14:25:12.821Z,22.90
2022-12-05T14:26:48.362Z,22.90
2022-12-05T14:27:58.923Z,22.92
2022-12-05T14:29:03.636Z,22.88
2022-12-05T14:30:15.686Z,22.90
2022-12-05T14:31:50.308Z,22.84
2022-12-05T14:32:53.864Z,22.89
2022-12-05T14:34:22.212Z,22.84
2022-12-05T14:35:40.735Z,22.89
2022-12-05T14:37:01.375Z,22.90
2022-12-05T14:38:06.346Z,22.94
2022-12-05T14:39:33.481Z,22.92
2022-12-05T14:40:39.470Z,22.98
2022-12-05T14:41:41.191Z,23.01
2022-12-05T14:42:50.871Z,23.02
2022-12-05T14:43:55.591Z,23.02
2022-12-05T14:45:03.954Z,23.02
2022-12-05T14:46:08.766Z,23.03
2022-12-05T14:47:20.266Z,23.02
2022-12-05T14:48:43.862Z,23.00
2022-12-05T14:49:56.124Z,23.01
2022-12-05T14:50:59.070Z,23.02
2022-12-05T14:52:00.865Z,23.03